createdAt,value
2019-01-31T00:02:10.506Z,26.83
2019-01-31T00:07:59.985Z,26.97
2019-01-31T00:13:37.634Z,27.70
2019-01-31T00:18:51.154Z,26.90
2019-01-31T00:24:15.244Z,27.90
2019-01-31T00:29:39.667Z,27.07
2019-01-31T00:34:56.790Z,26.80
2019-01-31T00:40:25.513Z,28.27
2019-01-31T00:45:56.669Z,27.87
2019-01-31T00:51:12.278Z,27.63
2019-01-31T00:56:39.589Z,27.33
2019-01-31T01:02:31.498Z,27.30
2019-01-31T01:07:53.270Z,27.27
2019-01-31T01:13:05.966Z,28.20
2019-01-31T01:18:31.527Z,28.67
2019-01-31T01:23:47.930Z,28.47
2019-01-31T01:29:41.258Z,27.97
2019-01-31T01:35:32.845Z,28.50
2019-01-31T01:41:27.254Z,28.30
2019-01-31T01:47:06.733Z,28.10
2019-01-31T01:52:23.561Z,29.30
2019-01-31T01:58:04.397Z,30.43
2019-01-31T02:03:43.199Z,29.23
2019-01-31T02:09:12.271Z,31.17
2019-01-31T02:14:59.749Z,30.40
2019-01-31T02:20:57.030Z,29.73
2019-01-31T02:27:09.039Z,29.03
2019-01-31T02:32:39.914Z,30.70
2019-01-31T02:38:04.625Z,30.97
2019-01-31T02:43:51.937Z,28.80
2019-01-31T02:49:27.329Z,29.30
2019-01-31T02:55:04.733Z,31.67
2019-01-31T03:00:24.125Z,29.43
2019-01-31T03:06:08.117Z,29.20
2019-01-31T03:11:46.349Z,29.93
2019-01-31T03:17:16.810Z,30.87
2019-01-31T03:23:19.901Z,30.33
2019-01-31T03:28:49.528Z,32.20
2019-01-31T03:34:04.409Z,30.93
2019-01-31T03:39:25.142Z,30.27
2019-01-31T03:44:34.173Z,31.20
2019-01-31T03:50:08.419Z,31.87
2019-01-31T03:55:50.087Z,30.80
2019-01-31T04:01:20.814Z,31.37
2019-01-31T04:06:34.009Z,31.93
2019-01-31T04:11:37.773Z,31.33
2019-01-31T04:16:41.440Z,31.57
2019-01-31T04:21:45.123Z,30.37
2019-01-31T04:26:48.871Z,31.30
2019-01-31T04:31:52.615Z,32.90
2019-01-31T04:36:56.289Z,30.23
2019-01-31T04:41:59.950Z,31.77
2019-01-31T04:47:03.694Z,31.60
2019-01-31T04:52:07.428Z,31.93
2019-01-31T04:57:11.168Z,32.30
2019-01-31T05:02:14.829Z,30.30
2019-01-31T05:07:18.564Z,31.37
2019-01-31T05:12:22.231Z,30.53
2019-01-31T05:17:25.996Z,29.97
2019-01-31T05:22:29.780Z,32.23
2019-01-31T05:27:33.509Z,30.90
2019-01-31T05:32:37.275Z,31.40
2019-01-31T05:37:40.956Z,30.07
2019-01-31T05:42:44.737Z,31.13
2019-01-31T05:47:48.406Z,30.17
2019-01-31T05:52:52.381Z,31.33
2019-01-31T05:57:56.045Z,31.43
2019-01-31T06:03:00.045Z,30.93
2019-01-31T06:08:03.826Z,32.73
2019-01-31T06:13:07.495Z,32.10
2019-01-31T06:18:11.252Z,31.13
2019-01-31T06:23:14.917Z,33.30
2019-01-31T06:28:18.588Z,32.93
2019-01-31T06:33:22.833Z,32.40
2019-01-31T06:38:26.520Z,32.40
2019-01-31T06:43:30.197Z,32.67
2019-01-31T06:48:34.224Z,32.60
2019-01-31T06:53:37.993Z,34.87
2019-01-31T06:58:41.766Z,33.67
2019-01-31T07:03:46.050Z,34.17
2019-01-31T07:08:50.309Z,37.37
2019-01-31T07:13:54.048Z,38.53
2019-01-31T07:18:57.784Z,35.20
2019-01-31T07:24:01.595Z,34.17
2019-01-31T07:29:05.485Z,34.03
2019-01-31T07:34:09.229Z,33.90
2019-01-31T07:39:12.888Z,34.90
2019-01-31T07:44:16.610Z,35.47
2019-01-31T07:49:20.312Z,34.23
2019-01-31T07:54:24.043Z,34.20
2019-01-31T07:59:27.763Z,35.37
2019-01-31T08:04:31.522Z,35.73
2019-01-31T08:09:35.656Z,33.83
2019-01-31T08:14:39.387Z,33.47
2019-01-31T08:19:43.097Z,34.73
2019-01-31T08:24:47.288Z,35.10
2019-01-31T08:29:52.156Z,34.23
2019-01-31T08:34:57.322Z,33.13
2019-01-31T08:40:01.293Z,32.97
2019-01-31T08:45:05.537Z,34.60
2019-01-31T08:50:13.052Z,33.53
2019-01-31T08:55:16.916Z,34.80
2019-01-31T09:00:22.744Z,35.83
2019-01-31T09:05:26.577Z,34.53
2019-01-31T09:10:32.744Z,33.40
2019-01-31T09:15:36.610Z,32.33
2019-01-31T09:20:47.411Z,32.90
2019-01-31T09:26:29.885Z,31.83
2019-01-31T09:32:16.398Z,32.60
2019-01-31T09:38:12.491Z,32.50
2019-01-31T09:43:40.617Z,31.47
2019-01-31T09:49:00.894Z,30.87
2019-01-31T09:54:09.845Z,31.13
2019-01-31T09:59:23.620Z,32.77
2019-01-31T10:04:42.830Z,31.83
2019-01-31T10:10:41.010Z,29.43
2019-01-31T10:16:05.184Z,25.93
2019-01-31T10:21:38.967Z,25.60
2019-01-31T10:27:18.788Z,24.83
2019-01-31T10:32:51.680Z,23.60
2019-01-31T10:38:19.376Z,22.83
2019-01-31T10:43:28.476Z,24.50
2019-01-31T10:48:53.557Z,24.37
2019-01-31T10:54:25.416Z,24.00
2019-01-31T10:59:55.692Z,22.87
2019-01-31T11:05:16.452Z,23.10
2019-01-31T11:10:28.612Z,24.27
2019-01-31T11:16:00.081Z,24.00
2019-01-31T11:21:57.996Z,21.10
2019-01-31T11:27:39.039Z,22.53
2019-01-31T11:33:27.404Z,20.70
2019-01-31T11:38:43.045Z,20.70
2019-01-31T11:44:25.081Z,20.63
2019-01-31T11:49:56.833Z,22.47
2019-01-31T11:55:57.140Z,20.90
2019-01-31T12:01:00.896Z,21.33
2019-01-31T12:06:04.805Z,19.70
2019-01-31T12:11:08.557Z,21.57
2019-01-31T12:16:12.301Z,21.07
2019-01-31T12:21:16.168Z,21.00
2019-01-31T12:26:19.845Z,20.00
2019-01-31T12:31:23.604Z,19.37
2019-01-31T12:36:28.911Z,21.20
2019-01-31T12:41:32.653Z,20.90
2019-01-31T12:46:36.348Z,19.13
2019-01-31T12:51:40.281Z,19.50
2019-01-31T12:56:43.947Z,19.17
2019-01-31T13:01:47.671Z,19.23
2019-01-31T13:06:51.398Z,19.17
2019-01-31T13:11:55.233Z,18.37
2019-01-31T13:16:58.975Z,17.83
2019-01-31T13:22:02.693Z,18.57
2019-01-31T13:27:06.447Z,17.33
2019-01-31T13:32:10.694Z,19.03
2019-01-31T13:37:14.405Z,20.63
2019-01-31T13:42:18.416Z,19.77
2019-01-31T13:47:22.252Z,21.27
2019-01-31T13:52:26.004Z,21.30
2019-01-31T13:57:29.689Z,22.27
2019-01-31T14:02:33.369Z,23.43
2019-01-31T14:07:37.129Z,23.17
2019-01-31T14:12:40.809Z,24.50
2019-01-31T14:17:44.476Z,25.13
2019-01-31T14:22:48.307Z,27.67
2019-01-31T14:27:52.091Z,30.33
2019-01-31T14:32:56.390Z,32.90
2019-01-31T14:38:00.214Z,36.73
2019-01-31T14:43:04.677Z,38.60
2019-01-31T14:48:08.356Z,38.17
2019-01-31T14:53:12.104Z,37.97
2019-01-31T14:58:15.840Z,36.33
2019-01-31T15:03:19.616Z,46.93
2019-01-31T15:08:23.289Z,39.20
2019-01-31T15:13:26.977Z,38.40
2019-01-31T15:18:30.669Z,39.87
2019-01-31T15:23:34.349Z,36.90
2019-01-31T15:28:38.024Z,35.40
2019-01-31T15:33:41.702Z,36.47
2019-01-31T15:38:45.384Z,36.23
2019-01-31T15:43:49.186Z,36.47
2019-01-31T15:48:52.953Z,35.60
2019-01-31T15:53:56.632Z,36.63
2019-01-31T15:59:00.377Z,38.10
2019-01-31T16:04:04.493Z,37.83
2019-01-31T16:09:09.437Z,39.20
2019-01-31T16:14:13.304Z,40.80
2019-01-31T16:19:16.993Z,39.87
2019-01-31T16:24:20.703Z,40.17
2019-01-31T16:29:24.449Z,39.17
2019-01-31T16:34:28.433Z,45.73
2019-01-31T16:39:33.041Z,44.83
2019-01-31T16:44:36.961Z,40.73
2019-01-31T16:49:43.992Z,40.17
2019-01-31T16:54:47.719Z,39.70
2019-01-31T16:59:51.384Z,40.40
2019-01-31T17:04:55.065Z,38.70
2019-01-31T17:09:58.745Z,41.17
2019-01-31T17:15:02.469Z,41.70
2019-01-31T17:20:09.406Z,44.53
2019-01-31T17:25:13.533Z,42.30
2019-01-31T17:30:19.759Z,41.27
2019-01-31T17:35:23.581Z,38.30
2019-01-31T17:40:29.591Z,37.77
2019-01-31T17:45:33.368Z,39.43
2019-01-31T17:50:37.034Z,40.30
2019-01-31T17:55:41.670Z,39.33
2019-01-31T18:00:51.495Z,40.23
2019-01-31T18:05:55.793Z,40.63
2019-01-31T18:11:00.304Z,41.03
2019-01-31T18:16:04.231Z,40.50
2019-01-31T18:21:07.895Z,40.20
2019-01-31T18:26:11.560Z,39.53
2019-01-31T18:31:15.216Z,40.63
2019-01-31T18:36:18.939Z,45.43
2019-01-31T18:41:22.765Z,42.50
2019-01-31T18:46:32.642Z,41.90
2019-01-31T18:51:36.317Z,39.90
2019-01-31T18:56:40.408Z,41.37
2019-01-31T19:01:44.541Z,41.43
2019-01-31T19:06:49.910Z,40.63
2019-01-31T19:11:53.729Z,39.57
2019-01-31T19:16:57.703Z,38.47
2019-01-31T19:22:01.795Z,39.73
2019-01-31T19:27:06.631Z,40.17
2019-01-31T19:32:10.585Z,44.97
2019-01-31T19:37:14.885Z,37.37
2019-01-31T19:42:18.572Z,38.57
2019-01-31T19:47:22.225Z,39.93
2019-01-31T19:52:26.193Z,39.17
2019-01-31T19:57:31.094Z,41.50
2019-01-31T20:02:35.095Z,43.53
2019-01-31T20:07:39.364Z,42.20
2019-01-31T20:12:43.087Z,43.50
2019-01-31T20:17:47.547Z,44.17
2019-01-31T20:22:53.053Z,44.63
2019-01-31T20:27:57.269Z,45.63
2019-01-31T20:33:06.470Z,44.07
2019-01-31T20:38:12.191Z,44.10
2019-01-31T20:43:16.961Z,45.57
2019-01-31T20:48:21.702Z,45.17
2019-01-31T20:53:25.859Z,46.00
2019-01-31T20:58:30.795Z,45.63
2019-01-31T21:03:35.260Z,46.13
2019-01-31T21:08:39.788Z,45.87
2019-01-31T21:13:43.568Z,46.47
2019-01-31T21:18:48.224Z,46.87
2019-01-31T21:23:52.170Z,45.90
2019-01-31T21:28:56.352Z,46.27
2019-01-31T21:34:00.102Z,45.60
2019-01-31T21:39:06.485Z,46.77
2019-01-31T21:44:10.200Z,45.40
2019-01-31T21:49:13.876Z,46.57
2019-01-31T21:54:17.549Z,47.33
2019-01-31T21:59:21.339Z,46.13
2019-01-31T22:04:25.008Z,45.83
2019-01-31T22:09:28.738Z,45.70
2019-01-31T22:14:32.437Z,46.37
2019-01-31T22:19:36.108Z,47.00
2019-01-31T22:24:39.833Z,47.13
2019-01-31T22:29:43.533Z,45.40
2019-01-31T22:34:47.204Z,47.00
2019-01-31T22:39:50.993Z,47.43
2019-01-31T22:44:54.724Z,47.07
2019-01-31T22:49:58.476Z,45.00
2019-01-31T22:55:02.166Z,46.03
2019-01-31T23:00:15.959Z,46.10
2019-01-31T23:05:19.749Z,46.47
2019-01-31T23:10:23.729Z,44.37
2019-01-31T23:15:27.416Z,45.37
2019-01-31T23:20:31.341Z,45.77
2019-01-31T23:25:40.214Z,44.13
2019-01-31T23:30:40.529Z,43.43
2019-01-31T23:35:44.306Z,43.87
2019-01-31T23:40:47.974Z,42.80
2019-01-31T23:45:51.649Z,42.40
2019-01-31T23:50:55.313Z,44.03
2019-01-31T23:55:58.974Z,44.80
